createdAt,value
2023-03-06T00:01:49.119Z,89.13
2023-03-06T00:03:50.743Z,38.38
2023-03-06T00:05:52.433Z,96.28
2023-03-06T00:07:53.988Z,49.63
2023-03-06T00:09:55.505Z,46.15
2023-03-06T00:11:57.116Z,67.45
2023-03-06T00:13:58.697Z,50.13
2023-03-06T00:16:01.144Z,41.85
2023-03-06T00:18:05.300Z,42.17
2023-03-06T00:20:07.974Z,38.80
2023-03-06T00:22:13.460Z,92.72
2023-03-06T00:24:14.967Z,98.20
2023-03-06T00:26:16.565Z,108.32
2023-03-06T00:28:18.253Z,53.97
2023-03-06T00:30:22.376Z,40.78
2023-03-06T00:32:24.974Z,73.70
2023-03-06T00:34:26.542Z,78.38
2023-03-06T00:36:28.140Z,162.05
2023-03-06T00:38:33.416Z,96.70
2023-03-06T00:40:35.004Z,154.98
2023-03-06T00:42:36.587Z,74.47
2023-03-06T00:44:38.767Z,155.35
2023-03-06T00:46:40.275Z,56.55
2023-03-06T00:48:41.953Z,57.00
2023-03-06T00:50:43.485Z,47.97
2023-03-06T00:52:45.790Z,105.95
2023-03-06T00:54:47.435Z,47.55
2023-03-06T00:56:48.967Z,480.95
2023-03-06T00:58:50.515Z,56.55
2023-03-06T01:00:52.204Z,116.18
2023-03-06T01:02:53.831Z,134.18
2023-03-06T01:04:55.669Z,119.40
2023-03-06T01:06:57.273Z,79.07
2023-03-06T01:08:58.904Z,61.40
2023-03-06T01:11:00.486Z,68.18
2023-03-06T01:13:02.032Z,133.23
2023-03-06T01:15:05.162Z,41.17
2023-03-06T01:17:07.696Z,45.33
2023-03-06T01:19:09.528Z,60.42
2023-03-06T01:21:11.751Z,146.90
2023-03-06T01:23:13.345Z,64.97
2023-03-06T01:25:15.087Z,50.42
2023-03-06T01:27:16.614Z,64.90
2023-03-06T01:29:18.363Z,41.88
2023-03-06T01:31:19.950Z,83.22
2023-03-06T01:33:21.600Z,81.38
2023-03-06T01:35:23.255Z,45.00
2023-03-06T01:37:24.803Z,113.95
2023-03-06T01:39:26.450Z,91.93
2023-03-06T01:41:28.040Z,40.05
2023-03-06T01:43:32.772Z,67.85
2023-03-06T01:45:34.275Z,44.20
2023-03-06T01:47:35.868Z,49.60
2023-03-06T01:49:40.615Z,49.78
2023-03-06T01:52:07.405Z,66.72
2023-03-06T01:54:14.639Z,45.60
2023-03-06T01:56:16.425Z,51.00
2023-03-06T01:58:19.600Z,131.57
2023-03-06T02:00:26.902Z,150.77
2023-03-06T02:02:29.095Z,118.40
2023-03-06T02:04:31.754Z,56.72
2023-03-06T02:06:38.545Z,43.10
2023-03-06T02:08:40.335Z,40.90
2023-03-06T02:11:02.545Z,42.97
2023-03-06T02:13:04.255Z,70.15
2023-03-06T02:15:06.509Z,45.95
2023-03-06T02:17:10.741Z,47.15
2023-03-06T02:19:40.528Z,42.15
2023-03-06T02:21:42.158Z,37.78
2023-03-06T02:24:35.350Z,43.28
2023-03-06T02:26:38.060Z,40.63
2023-03-06T02:28:40.076Z,40.03
2023-03-06T02:30:43.787Z,45.17
2023-03-06T02:32:45.476Z,53.00
2023-03-06T02:34:57.679Z,49.60
2023-03-06T02:37:03.290Z,129.43
2023-03-06T02:39:05.655Z,52.72
2023-03-06T02:41:08.726Z,47.03
2023-03-06T02:43:12.481Z,51.05
2023-03-06T02:45:17.460Z,41.78
2023-03-06T02:47:19.286Z,52.35
2023-03-06T02:49:20.900Z,57.47
2023-03-06T02:51:22.809Z,70.88
2023-03-06T02:53:24.468Z,53.63
2023-03-06T02:55:26.169Z,43.33
2023-03-06T02:57:27.776Z,49.05
2023-03-06T02:59:29.272Z,54.15
2023-03-06T03:01:30.912Z,54.03
2023-03-06T03:03:33.232Z,54.63
2023-03-06T03:05:34.809Z,56.13
2023-03-06T03:07:36.659Z,69.82
2023-03-06T03:09:38.362Z,58.10
2023-03-06T03:11:40.552Z,61.80
2023-03-06T03:13:42.097Z,51.22
2023-03-06T03:15:44.381Z,52.90
2023-03-06T03:17:45.944Z,69.15
2023-03-06T03:19:47.483Z,50.35
2023-03-06T03:21:49.026Z,52.42
2023-03-06T03:23:50.597Z,56.05
2023-03-06T03:25:52.497Z,57.53
2023-03-06T03:27:54.243Z,57.28
2023-03-06T03:30:00.184Z,58.88
2023-03-06T03:32:01.774Z,55.55
2023-03-06T03:34:03.509Z,53.83
2023-03-06T03:36:07.163Z,56.88
2023-03-06T03:38:08.724Z,58.30
2023-03-06T03:40:10.884Z,62.40
2023-03-06T03:42:12.426Z,52.88
2023-03-06T03:44:13.983Z,55.28
2023-03-06T03:46:15.643Z,50.42
2023-03-06T03:48:17.194Z,49.58
2023-03-06T03:50:19.275Z,50.63
2023-03-06T03:52:20.885Z,45.58
2023-03-06T03:54:22.540Z,49.90
2023-03-06T03:56:25.801Z,53.30
2023-03-06T03:58:27.477Z,49.25
2023-03-06T04:00:29.207Z,57.45
2023-03-06T04:02:30.734Z,56.83
2023-03-06T04:04:32.386Z,55.72
2023-03-06T04:06:33.989Z,52.75
2023-03-06T04:08:36.161Z,68.03
2023-03-06T04:10:39.467Z,70.47
2023-03-06T04:12:41.190Z,61.45
2023-03-06T04:14:42.716Z,65.55
2023-03-06T04:16:44.462Z,60.00
2023-03-06T04:18:45.992Z,58.13
2023-03-06T04:20:48.330Z,66.75
2023-03-06T04:22:49.820Z,69.18
2023-03-06T04:24:51.388Z,64.20
2023-03-06T04:26:52.933Z,66.28
2023-03-06T04:28:56.124Z,60.72
2023-03-06T04:30:57.678Z,77.05
2023-03-06T04:32:59.522Z,68.95
2023-03-06T04:35:01.178Z,65.20
2023-03-06T04:37:02.816Z,60.58
2023-03-06T04:39:04.530Z,52.25
2023-03-06T04:41:06.172Z,47.17
2023-03-06T04:43:07.946Z,41.88
2023-03-06T04:45:09.986Z,43.95
2023-03-06T04:47:12.148Z,46.35
2023-03-06T04:49:13.735Z,45.65
2023-03-06T04:51:15.606Z,44.97
2023-03-06T04:53:19.619Z,42.40
2023-03-06T04:55:21.397Z,49.28
2023-03-06T04:57:23.853Z,48.42
2023-03-06T04:59:25.504Z,53.85
2023-03-06T05:01:26.989Z,56.95
2023-03-06T05:03:28.576Z,54.70
2023-03-06T05:05:30.377Z,80.50
2023-03-06T05:07:31.899Z,54.15
2023-03-06T05:09:34.444Z,46.60
2023-03-06T05:11:35.941Z,48.60
2023-03-06T05:13:37.639Z,46.50
2023-03-06T05:15:42.151Z,49.60
2023-03-06T05:17:44.248Z,46.28
2023-03-06T05:19:45.990Z,47.67
2023-03-06T05:21:47.547Z,49.72
2023-03-06T05:23:49.080Z,49.17
2023-03-06T05:25:50.609Z,47.97
2023-03-06T05:27:52.225Z,42.95
2023-03-06T05:29:54.668Z,46.25
2023-03-06T05:31:56.261Z,43.83
2023-03-06T05:33:58.930Z,49.22
2023-03-06T05:36:00.795Z,45.72
2023-03-06T05:38:02.572Z,49.88
2023-03-06T05:40:06.699Z,47.90
2023-03-06T05:42:08.595Z,44.25
2023-03-06T05:44:10.158Z,47.63
2023-03-06T05:46:12.033Z,46.70
2023-03-06T05:48:14.081Z,55.72
2023-03-06T05:50:15.657Z,51.45
2023-03-06T05:52:17.645Z,72.47
2023-03-06T05:54:19.320Z,54.45
2023-03-06T05:56:21.890Z,75.75
2023-03-06T05:58:23.432Z,62.78
2023-03-06T06:00:25.578Z,52.30
2023-03-06T06:02:27.216Z,46.63
2023-03-06T06:04:28.914Z,51.30
2023-03-06T06:06:30.456Z,48.50
2023-03-06T06:08:32.106Z,50.20
2023-03-06T06:10:33.667Z,52.38
2023-03-06T06:12:35.441Z,61.30
2023-03-06T06:14:37.119Z,53.10
2023-03-06T06:16:38.623Z,47.38
2023-03-06T06:18:41.486Z,46.67
2023-03-06T06:20:43.186Z,54.53
2023-03-06T06:22:44.972Z,43.55
2023-03-06T06:24:46.524Z,56.10
2023-03-06T06:26:50.721Z,53.42
2023-03-06T06:28:52.220Z,50.00
2023-03-06T06:30:53.898Z,40.10
2023-03-06T06:32:55.489Z,41.85
2023-03-06T06:34:57.328Z,43.75
2023-03-06T06:36:58.960Z,45.72
2023-03-06T06:39:00.561Z,44.97
2023-03-06T06:41:35.733Z,54.90
2023-03-06T06:43:25.295Z,54.45
2023-03-06T06:45:27.120Z,49.53
2023-03-06T06:47:28.758Z,42.97
2023-03-06T06:49:30.362Z,58.10
2023-03-06T06:51:33.416Z,57.05
2023-03-06T06:53:34.966Z,68.78
2023-03-06T06:55:37.332Z,65.40
2023-03-06T06:57:40.297Z,57.53
2023-03-06T06:59:42.048Z,56.88
2023-03-06T07:01:43.902Z,48.90
2023-03-06T07:03:45.614Z,63.38
2023-03-06T07:05:54.877Z,54.05
2023-03-06T07:07:56.632Z,43.35
2023-03-06T07:09:58.207Z,46.38
2023-03-06T07:11:59.771Z,45.58
2023-03-06T07:14:02.071Z,39.47
2023-03-06T07:16:03.904Z,42.95
2023-03-06T07:18:05.499Z,39.85
2023-03-06T07:20:08.878Z,42.13
2023-03-06T07:22:10.550Z,36.85
2023-03-06T07:24:12.099Z,42.42
2023-03-06T07:26:13.766Z,41.05
2023-03-06T07:28:17.879Z,45.67
2023-03-06T07:30:21.102Z,59.03
2023-03-06T07:32:22.749Z,87.93
2023-03-06T07:34:24.278Z,128.45
2023-03-06T07:36:26.053Z,77.53
2023-03-06T07:38:27.592Z,58.83
2023-03-06T07:40:29.389Z,54.38
2023-03-06T07:42:30.939Z,63.30
2023-03-06T07:44:36.561Z,56.10
2023-03-06T07:46:38.171Z,47.28
2023-03-06T07:48:40.333Z,45.28
2023-03-06T07:50:42.098Z,139.07
2023-03-06T07:52:43.760Z,65.72
2023-03-06T07:54:45.283Z,103.88
2023-03-06T07:56:50.759Z,99.22
2023-03-06T07:58:52.282Z,74.25
2023-03-06T08:00:53.838Z,47.33
2023-03-06T08:02:55.579Z,52.28
2023-03-06T08:04:57.234Z,109.07
2023-03-06T08:06:59.756Z,63.72
2023-03-06T08:09:01.447Z,48.67
2023-03-06T08:11:03.794Z,39.20
2023-03-06T08:13:05.399Z,33.42
2023-03-06T08:15:09.353Z,61.83
2023-03-06T08:17:10.883Z,58.10
2023-03-06T08:19:12.423Z,85.22
2023-03-06T08:21:16.416Z,46.47
2023-03-06T08:23:17.994Z,119.40
2023-03-06T08:25:19.770Z,30.80
2023-03-06T08:27:21.352Z,37.67
2023-03-06T08:29:22.905Z,41.50
2023-03-06T08:31:36.301Z,46.30
2023-03-06T08:33:39.071Z,32.25
2023-03-06T08:35:40.631Z,40.28
2023-03-06T08:37:42.231Z,40.03
2023-03-06T08:39:43.792Z,32.00
2023-03-06T08:41:45.417Z,35.20
2023-03-06T08:43:47.064Z,32.75
2023-03-06T08:45:53.583Z,39.13
2023-03-06T08:47:55.176Z,53.42
2023-03-06T08:49:58.768Z,47.08
2023-03-06T08:52:01.026Z,29.90
2023-03-06T08:54:02.615Z,46.20
2023-03-06T08:56:04.587Z,71.18
2023-03-06T08:58:06.247Z,37.05
2023-03-06T09:00:09.102Z,29.92
2023-03-06T09:02:15.457Z,31.40
2023-03-06T09:04:17.272Z,45.95
2023-03-06T09:06:18.882Z,24.75
2023-03-06T09:08:20.637Z,23.85
2023-03-06T09:10:24.122Z,32.72
2023-03-06T09:12:27.238Z,33.15
2023-03-06T09:14:31.250Z,28.38
2023-03-06T09:16:33.182Z,61.60
2023-03-06T09:18:36.588Z,22.23
2023-03-06T09:20:38.164Z,20.75
2023-03-06T09:22:42.410Z,19.92
2023-03-06T09:24:43.921Z,22.40
2023-03-06T09:26:47.164Z,23.35
2023-03-06T09:28:50.464Z,22.88
2023-03-06T09:30:52.432Z,28.50
2023-03-06T09:32:53.999Z,28.90
2023-03-06T09:34:55.599Z,20.60
2023-03-06T09:36:57.778Z,20.15
2023-03-06T09:38:59.370Z,52.08
2023-03-06T09:41:15.373Z,22.20
2023-03-06T09:43:23.868Z,143.52
2023-03-06T09:45:25.394Z,47.30
2023-03-06T09:47:27.658Z,45.55
2023-03-06T09:49:39.600Z,28.58
2023-03-06T09:51:51.754Z,26.70
2023-03-06T09:54:05.207Z,37.28
2023-03-06T09:56:17.825Z,22.00
2023-03-06T09:58:25.396Z,19.35
2023-03-06T10:00:31.975Z,30.00
2023-03-06T10:02:37.147Z,19.23
2023-03-06T10:04:46.224Z,21.67
2023-03-06T10:06:51.086Z,19.10
2023-03-06T10:08:58.410Z,24.33
2023-03-06T10:11:03.682Z,21.73
2023-03-06T10:13:32.929Z,34.90
2023-03-06T10:15:38.637Z,144.10
2023-03-06T10:17:42.103Z,23.60
2023-03-06T10:19:44.026Z,21.27
2023-03-06T10:22:02.282Z,41.67
2023-03-06T10:24:48.651Z,24.27
2023-03-06T10:26:54.567Z,22.75
2023-03-06T10:29:29.673Z,39.63
2023-03-06T10:31:32.274Z,93.15
2023-03-06T10:33:42.285Z,31.38
2023-03-06T10:35:51.818Z,22.83
2023-03-06T10:38:01.097Z,32.60
2023-03-06T10:40:15.002Z,68.35
2023-03-06T10:42:16.556Z,25.05
2023-03-06T10:44:20.177Z,16.90
2023-03-06T10:46:29.949Z,20.23
2023-03-06T10:48:35.871Z,31.58
2023-03-06T10:50:37.761Z,41.38
2023-03-06T10:52:39.311Z,26.85
2023-03-06T10:54:43.903Z,13.45
2023-03-06T10:56:47.251Z,44.60
2023-03-06T10:59:04.180Z,40.20
2023-03-06T11:01:18.443Z,13.85
2023-03-06T11:03:25.089Z,29.85
2023-03-06T11:05:26.678Z,11.63
2023-03-06T11:07:30.023Z,62.83
2023-03-06T11:09:33.244Z,76.35
2023-03-06T11:11:37.808Z,60.40
2023-03-06T11:13:42.369Z,58.38
2023-03-06T11:15:56.412Z,23.52
2023-03-06T11:18:09.909Z,22.70
2023-03-06T11:20:14.470Z,87.63
2023-03-06T11:22:19.212Z,70.20
2023-03-06T11:24:21.812Z,37.85
2023-03-06T11:26:32.807Z,44.50
2023-03-06T11:28:42.301Z,26.13
2023-03-06T11:30:52.284Z,47.97
2023-03-06T11:32:59.092Z,45.55
2023-03-06T11:35:11.361Z,24.52
2023-03-06T11:37:31.017Z,19.73
2023-03-06T11:39:49.456Z,58.97
2023-03-06T11:42:03.901Z,47.85
2023-03-06T11:44:16.043Z,38.22
2023-03-06T11:46:23.525Z,38.25
2023-03-06T11:48:30.663Z,23.80
2023-03-06T11:50:38.682Z,13.68
2023-03-06T11:52:59.093Z,25.08
2023-03-06T11:55:00.715Z,11.73
2023-03-06T11:57:11.925Z,15.27
2023-03-06T11:59:22.270Z,28.55
2023-03-06T12:01:36.156Z,24.90
2023-03-06T12:04:07.595Z,10.93
2023-03-06T12:06:37.722Z,20.27
2023-03-06T12:09:01.365Z,10.45
2023-03-06T12:11:19.720Z,7.97
2023-03-06T12:13:39.866Z,6.60
2023-03-06T12:16:18.211Z,6.07
2023-03-06T12:18:38.219Z,11.23
2023-03-06T12:21:02.698Z,9.50
2023-03-06T12:23:27.364Z,8.77
2023-03-06T12:25:40.275Z,27.08
2023-03-06T12:27:46.901Z,36.95
2023-03-06T12:30:13.456Z,44.10
2023-03-06T12:32:30.291Z,28.80
2023-03-06T12:34:44.468Z,27.40
2023-03-06T12:36:54.017Z,20.25
2023-03-06T12:39:25.352Z,14.15
2023-03-06T12:41:48.857Z,28.00
2023-03-06T12:43:53.132Z,15.40
2023-03-06T12:45:59.208Z,17.98
2023-03-06T12:48:02.072Z,21.02
2023-03-06T12:50:16.350Z,30.27
2023-03-06T12:52:29.600Z,19.00
2023-03-06T12:54:35.423Z,18.50
2023-03-06T12:56:38.944Z,7.15
2023-03-06T12:58:54.818Z,12.60
2023-03-06T13:01:27.402Z,15.00
2023-03-06T13:03:56.146Z,6.90
2023-03-06T13:06:50.255Z,9.05
2023-03-06T13:09:07.135Z,8.00
2023-03-06T13:11:38.146Z,16.60
2023-03-06T13:13:44.580Z,8.73
2023-03-06T13:16:11.733Z,15.35
2023-03-06T13:18:22.332Z,12.02
2023-03-06T13:20:35.156Z,8.95
2023-03-06T13:22:36.940Z,8.02
2023-03-06T13:24:38.553Z,11.57
2023-03-06T13:26:40.013Z,35.05
2023-03-06T13:28:51.427Z,26.20
2023-03-06T13:30:53.431Z,17.23
2023-03-06T13:32:56.313Z,25.85
2023-03-06T13:34:57.989Z,45.72
2023-03-06T13:37:18.488Z,100.05
2023-03-06T13:39:20.223Z,105.38
2023-03-06T13:41:28.030Z,53.42
2023-03-06T13:43:30.885Z,47.75
2023-03-06T13:45:43.109Z,30.60
2023-03-06T13:48:37.550Z,24.80
2023-03-06T13:50:31.063Z,22.13
2023-03-06T13:53:04.695Z,19.98
2023-03-06T13:55:25.408Z,16.85
2023-03-06T13:57:49.323Z,18.85
2023-03-06T14:00:14.437Z,14.35
2023-03-06T14:02:26.143Z,17.52
2023-03-06T14:04:56.818Z,17.25
2023-03-06T14:07:06.476Z,18.50
2023-03-06T14:09:24.653Z,39.25
2023-03-06T14:11:27.164Z,31.63
2023-03-06T14:13:47.514Z,26.23
2023-03-06T14:15:54.751Z,44.85
2023-03-06T14:18:13.455Z,38.38
2023-03-06T14:20:19.802Z,58.88
2023-03-06T14:22:24.859Z,25.92
2023-03-06T14:24:35.881Z,25.05
2023-03-06T14:26:43.218Z,31.20
2023-03-06T14:28:54.397Z,39.10
2023-03-06T14:30:57.557Z,32.25
2023-03-06T14:32:59.207Z,38.28
2023-03-06T14:35:00.765Z,37.33
2023-03-06T14:37:05.635Z,46.40
2023-03-06T14:39:14.884Z,25.95
2023-03-06T14:41:43.540Z,42.13
2023-03-06T14:43:45.058Z,42.95
2023-03-06T14:45:58.560Z,27.20
2023-03-06T14:48:00.267Z,38.92
2023-03-06T14:50:34.098Z,52.38
2023-03-06T14:52:39.147Z,68.63
2023-03-06T14:54:44.160Z,56.60
2023-03-06T14:56:49.370Z,88.75
2023-03-06T14:58:58.540Z,22.08
2023-03-06T15:01:04.966Z,21.70
2023-03-06T15:03:15.296Z,19.60
2023-03-06T15:05:27.528Z,24.67
2023-03-06T15:07:32.392Z,12.43
2023-03-06T15:09:36.380Z,12.77
2023-03-06T15:11:57.723Z,12.48
2023-03-06T15:14:04.345Z,14.45
2023-03-06T15:16:14.043Z,13.52
2023-03-06T15:20:42.095Z,12.45
2023-03-06T15:22:44.018Z,20.88
2023-03-06T15:24:45.655Z,19.33
2023-03-06T15:26:55.401Z,16.40
2023-03-06T15:31:18.224Z,18.15
2023-03-06T15:33:24.595Z,16.70
2023-03-06T15:35:30.116Z,22.23
2023-03-06T15:37:34.244Z,18.98
2023-03-06T15:39:38.833Z,21.23
2023-03-06T15:41:42.041Z,23.80
2023-03-06T15:43:43.556Z,18.60
2023-03-06T15:45:59.308Z,36.10
2023-03-06T15:48:02.793Z,51.63
2023-03-06T15:50:12.559Z,18.63
2023-03-06T15:54:15.569Z,17.00
2023-03-06T15:56:21.617Z,41.38
2023-03-06T15:58:26.764Z,32.83
2023-03-06T16:00:34.316Z,56.00
2023-03-06T16:02:35.845Z,55.45
2023-03-06T16:04:37.425Z,35.13
2023-03-06T16:06:39.178Z,35.35
2023-03-06T16:08:40.670Z,22.77
2023-03-06T16:10:44.613Z,24.77
2023-03-06T16:12:52.701Z,28.35
2023-03-06T16:14:55.119Z,19.88
2023-03-06T16:16:57.589Z,22.98
2023-03-06T16:18:59.223Z,22.73
2023-03-06T16:21:00.776Z,29.20
2023-03-06T16:23:05.611Z,43.10
2023-03-06T16:25:07.653Z,39.13
2023-03-06T16:27:17.897Z,64.80
2023-03-06T16:29:23.044Z,51.05
2023-03-06T16:31:24.655Z,70.43
2023-03-06T16:33:26.475Z,85.65
2023-03-06T16:35:28.181Z,82.30
2023-03-06T16:37:29.752Z,119.50
2023-03-06T16:39:31.493Z,133.15
2023-03-06T16:41:33.203Z,243.38
2023-03-06T16:43:34.764Z,126.40
2023-03-06T16:45:38.324Z,89.22
2023-03-06T16:47:40.394Z,109.05
2023-03-06T16:49:42.052Z,112.65
2023-03-06T16:51:44.139Z,272.70
2023-03-06T16:53:46.416Z,687.65
2023-03-06T16:55:48.112Z,466.52
2023-03-06T16:57:49.912Z,226.95
2023-03-06T16:59:51.547Z,175.35
2023-03-06T17:01:53.046Z,145.85
2023-03-06T17:03:54.941Z,161.23
2023-03-06T17:05:56.481Z,220.30
2023-03-06T17:07:58.090Z,163.25
2023-03-06T17:09:59.712Z,316.42
2023-03-06T17:12:01.369Z,322.92
2023-03-06T17:14:02.915Z,127.57
2023-03-06T17:16:05.152Z,180.13
2023-03-06T17:18:06.870Z,258.02
2023-03-06T17:20:09.307Z,249.77
2023-03-06T17:22:10.806Z,120.47
2023-03-06T17:24:12.420Z,266.83
2023-03-06T17:26:18.136Z,167.88
2023-03-06T17:28:19.629Z,98.03
2023-03-06T17:30:21.202Z,88.22
2023-03-06T17:32:22.784Z,86.85
2023-03-06T17:34:24.677Z,100.40
2023-03-06T17:36:31.049Z,74.00
2023-03-06T17:38:32.676Z,59.13
2023-03-06T17:40:34.634Z,79.07
2023-03-06T17:42:36.251Z,62.38
2023-03-06T17:44:38.584Z,278.20
2023-03-06T17:46:40.178Z,47.55
2023-03-06T17:48:41.739Z,69.55
2023-03-06T17:50:45.794Z,65.20
2023-03-06T17:52:47.556Z,93.45
2023-03-06T17:54:49.154Z,110.63
2023-03-06T17:56:50.669Z,144.05
2023-03-06T17:58:52.830Z,164.70
2023-03-06T18:00:54.507Z,174.38
2023-03-06T18:02:56.076Z,188.15
2023-03-06T18:04:58.315Z,200.60
2023-03-06T18:06:59.898Z,168.20
2023-03-06T18:09:01.542Z,184.35
2023-03-06T18:11:05.477Z,170.80
2023-03-06T18:13:08.435Z,194.85
2023-03-06T18:15:10.246Z,190.98
2023-03-06T18:17:11.762Z,189.60
2023-03-06T18:19:13.410Z,186.82
2023-03-06T18:21:16.534Z,190.75
2023-03-06T18:23:18.220Z,162.35
2023-03-06T18:25:19.869Z,158.32
2023-03-06T18:27:21.925Z,127.88
2023-03-06T18:29:23.471Z,142.00
2023-03-06T18:31:28.153Z,171.68
2023-03-06T18:33:29.711Z,154.98
2023-03-06T18:35:31.240Z,146.18
2023-03-06T18:37:33.108Z,138.57
2023-03-06T18:39:34.643Z,149.73
2023-03-06T18:41:37.094Z,157.35
2023-03-06T18:43:39.170Z,147.90
2023-03-06T18:45:40.785Z,141.70
2023-03-06T18:47:42.346Z,146.32
2023-03-06T18:49:45.953Z,143.45
2023-03-06T18:51:50.027Z,178.27
2023-03-06T18:53:51.684Z,220.43
2023-03-06T18:55:56.472Z,194.82
2023-03-06T18:57:58.044Z,139.18
2023-03-06T18:59:59.663Z,117.97
2023-03-06T19:02:01.234Z,103.68
2023-03-06T19:04:04.018Z,92.30
2023-03-06T19:06:07.652Z,82.20
2023-03-06T19:08:10.021Z,83.97
2023-03-06T19:10:12.246Z,68.28
2023-03-06T19:12:13.855Z,68.68
2023-03-06T19:14:15.821Z,70.85
2023-03-06T19:16:19.770Z,93.35
2023-03-06T19:18:21.284Z,103.03
2023-03-06T19:20:23.685Z,104.88
2023-03-06T19:22:25.290Z,128.32
2023-03-06T19:24:27.130Z,95.18
2023-03-06T19:26:28.800Z,86.53
2023-03-06T19:28:30.464Z,99.88
2023-03-06T19:30:31.999Z,87.10
2023-03-06T19:32:33.643Z,87.97
2023-03-06T19:34:35.187Z,80.10
2023-03-06T19:36:38.765Z,80.25
2023-03-06T19:38:40.749Z,110.82
2023-03-06T19:40:49.828Z,93.15
2023-03-06T19:42:51.522Z,88.38
2023-03-06T19:44:53.091Z,88.00
2023-03-06T19:46:54.571Z,95.20
2023-03-06T19:48:58.725Z,119.68
2023-03-06T19:51:04.357Z,81.32
2023-03-06T19:53:07.334Z,82.18
2023-03-06T19:55:09.764Z,83.50
2023-03-06T19:57:11.315Z,98.65
2023-03-06T19:59:12.895Z,97.75
2023-03-06T20:01:17.552Z,73.60
2023-03-06T20:03:19.107Z,101.97
2023-03-06T20:05:20.674Z,98.72
2023-03-06T20:07:22.376Z,79.18
2023-03-06T20:09:23.896Z,126.63
2023-03-06T20:11:29.965Z,104.38
2023-03-06T20:13:32.105Z,102.07
2023-03-06T20:15:35.137Z,100.50
2023-03-06T20:17:39.735Z,108.38
2023-03-06T20:19:41.655Z,129.90
2023-03-06T20:21:43.285Z,145.43
2023-03-06T20:23:44.809Z,139.48
2023-03-06T20:25:46.403Z,128.93
2023-03-06T20:27:47.920Z,141.02
2023-03-06T20:29:49.572Z,130.30
2023-03-06T20:31:55.151Z,105.88
2023-03-06T20:33:58.886Z,181.75
2023-03-06T20:36:00.607Z,127.88
2023-03-06T20:38:02.150Z,121.22
2023-03-06T20:40:05.186Z,111.45
2023-03-06T20:42:08.164Z,107.15
2023-03-06T20:44:13.588Z,116.78
2023-03-06T20:46:15.748Z,105.88
2023-03-06T20:48:17.386Z,117.63
2023-03-06T20:50:18.931Z,121.32
2023-03-06T20:52:20.497Z,94.15
2023-03-06T20:54:22.311Z,71.57
2023-03-06T20:56:26.786Z,72.93
2023-03-06T20:58:30.234Z,68.43
2023-03-06T21:00:31.820Z,63.85
2023-03-06T21:02:33.407Z,67.00
2023-03-06T21:04:35.028Z,64.18
2023-03-06T21:06:37.522Z,63.95
2023-03-06T21:08:39.019Z,57.50
2023-03-06T21:10:40.782Z,57.65
2023-03-06T21:12:42.452Z,57.30
2023-03-06T21:14:43.968Z,82.47
2023-03-06T21:16:45.609Z,92.07
2023-03-06T21:18:47.799Z,92.72
2023-03-06T21:20:49.358Z,80.13
2023-03-06T21:22:52.005Z,78.18
2023-03-06T21:24:53.569Z,79.30
2023-03-06T21:26:55.127Z,63.42
2023-03-06T21:28:58.919Z,61.92
2023-03-06T21:31:01.257Z,67.00
2023-03-06T21:33:03.936Z,67.78
2023-03-06T21:35:05.870Z,64.85
2023-03-06T21:37:07.371Z,61.50
2023-03-06T21:39:09.233Z,67.43
2023-03-06T21:41:17.037Z,58.40
2023-03-06T21:43:19.127Z,63.50
2023-03-06T21:45:20.613Z,68.28
2023-03-06T21:47:22.174Z,54.53
2023-03-06T21:49:26.139Z,62.65
2023-03-06T21:51:27.879Z,58.58
2023-03-06T21:53:29.379Z,55.25
2023-03-06T21:55:30.951Z,58.35
2023-03-06T21:57:32.748Z,55.80
2023-03-06T21:59:34.301Z,59.47
2023-03-06T22:01:35.820Z,52.47
2023-03-06T22:03:37.737Z,54.05
2023-03-06T22:05:39.294Z,59.33
2023-03-06T22:07:41.138Z,64.65
2023-03-06T22:09:42.696Z,85.07
2023-03-06T22:11:44.222Z,68.65
2023-03-06T22:13:47.205Z,66.60
2023-03-06T22:15:52.975Z,61.13
2023-03-06T22:17:54.604Z,52.70
2023-03-06T22:19:56.149Z,58.28
2023-03-06T22:21:57.680Z,53.03
2023-03-06T22:23:59.678Z,54.28
2023-03-06T22:26:03.603Z,53.35
2023-03-06T22:28:05.175Z,49.85
2023-03-06T22:30:07.334Z,53.60
2023-03-06T22:32:09.331Z,51.22
2023-03-06T22:34:11.336Z,48.13
2023-03-06T22:36:15.389Z,49.03
2023-03-06T22:38:17.134Z,44.17
2023-03-06T22:40:19.018Z,46.50
2023-03-06T22:42:20.537Z,48.45
2023-03-06T22:44:22.361Z,45.17
2023-03-06T22:46:25.026Z,46.00
2023-03-06T22:48:26.648Z,43.78
2023-03-06T22:50:28.222Z,42.78
2023-03-06T22:52:29.799Z,56.50
2023-03-06T22:54:31.501Z,49.92
2023-03-06T22:56:33.519Z,57.40
2023-03-06T22:58:37.348Z,49.40
2023-03-06T23:00:39.118Z,52.50
2023-03-06T23:02:40.657Z,49.67
2023-03-06T23:04:42.212Z,144.05
2023-03-06T23:06:44.673Z,49.97
2023-03-06T23:08:57.656Z,53.45
2023-03-06T23:10:59.205Z,55.35
2023-03-06T23:13:00.709Z,60.40
2023-03-06T23:21:45.955Z,62.17
2023-03-06T23:23:49.701Z,62.83
2023-03-06T23:25:52.012Z,47.60
2023-03-06T23:27:54.118Z,43.92
2023-03-06T23:29:58.846Z,83.03
2023-03-06T23:32:00.464Z,48.88
2023-03-06T23:34:03.024Z,53.95
2023-03-06T23:36:07.079Z,46.28
2023-03-06T23:38:08.579Z,54.72
2023-03-06T23:40:10.637Z,48.03
2023-03-06T23:42:12.192Z,48.95
2023-03-06T23:44:13.808Z,47.88
2023-03-06T23:46:16.287Z,47.90
2023-03-06T23:48:17.857Z,45.83
2023-03-06T23:50:19.589Z,45.42
2023-03-06T23:52:21.156Z,52.83
2023-03-06T23:54:22.712Z,47.72
2023-03-06T23:56:26.126Z,46.85
2023-03-06T23:58:27.743Z,55.40
